sensor_id;sensor_type;location;lat;lon;timestamp;pressure;altitude;pressure_sealevel;temperature;humidity
77517;BME280;68414;53.946;27.634;2023-03-23T00:00:44;98446.781250;;;8.830000;63.801758
77517;BME280;68414;53.946;27.634;2023-03-23T00:01:44;98442.507812;;;8.860000;63.871094
77517;BME280;68414;53.946;27.634;2023-03-23T00:02:44;98441.734375;;;8.850000;64.021484
77517;BME280;68414;53.946;27.634;2023-03-23T00:03:45;98442.421875;;;8.820000;63.887695
77517;BME280;68414;53.946;27.634;2023-03-23T00:04:44;98443.921875;;;8.800000;64.196289
77517;BME280;68414;53.946;27.634;2023-03-23T00:05:44;98441.906250;;;8.770000;64.367188
77517;BME280;68414;53.946;27.634;2023-03-23T00:06:44;98444.890625;;;8.720000;64.563477
77517;BME280;68414;53.946;27.634;2023-03-23T00:07:44;98446.953125;;;8.750000;64.481445
77517;BME280;68414;53.946;27.634;2023-03-23T00:08:45;98440.039062;;;8.810000;64.534180
77517;BME280;68414;53.946;27.634;2023-03-23T00:09:44;98438.625000;;;8.870000;64.336914
77517;BME280;68414;53.946;27.634;2023-03-23T00:10:44;98442.257812;;;8.910000;64.030273
77517;BME280;68414;53.946;27.634;2023-03-23T00:11:44;98439.140625;;;8.920000;64.021484
77517;BME280;68414;53.946;27.634;2023-03-23T00:12:44;98441.203125;;;8.950000;63.994141
77517;BME280;68414;53.946;27.634;2023-03-23T00:13:45;98435.625000;;;8.920000;63.976562
77517;BME280;68414;53.946;27.634;2023-03-23T00:14:44;98428.156250;;;8.920000;64.280273
77517;BME280;68414;53.946;27.634;2023-03-23T00:15:44;98435.796875;;;8.830000;64.601562
77517;BME280;68414;53.946;27.634;2023-03-23T00:16:44;98430.460938;;;8.900000;64.515625
77517;BME280;68414;53.946;27.634;2023-03-23T00:17:44;98426.578125;;;8.910000;64.430664
77517;BME280;68414;53.946;27.634;2023-03-23T00:18:45;98426.500000;;;8.880000;64.749023
77517;BME280;68414;53.946;27.634;2023-03-23T00:19:44;98425.773438;;;8.910000;64.744141
77517;BME280;68414;53.946;27.634;2023-03-23T00:20:44;98426.218750;;;8.930000;64.768555
77517;BME280;68414;53.946;27.634;2023-03-23T00:21:44;98424.640625;;;8.920000;64.711914
77517;BME280;68414;53.946;27.634;2023-03-23T00:22:44;98423.578125;;;8.960000;64.708008
77517;BME280;68414;53.946;27.634;2023-03-23T00:23:44;98417.281250;;;8.960000;64.697266
77517;BME280;68414;53.946;27.634;2023-03-23T00:24:44;98416.906250;;;8.970000;64.548828
77517;BME280;68414;53.946;27.634;2023-03-23T00:25:45;98418.859375;;;8.970000;64.741211
77517;BME280;68414;53.946;27.634;2023-03-23T00:26:45;98417.796875;;;9.010000;64.564453
77517;BME280;68414;53.946;27.634;2023-03-23T00:27:44;98415.773438;;;8.980000;64.634766
77517;BME280;68414;53.946;27.634;2023-03-23T00:28:45;98413.976562;;;8.900000;64.926758
77517;BME280;68414;53.946;27.634;2023-03-23T00:29:44;98414.156250;;;8.820000;65.216797
77517;BME280;68414;53.946;27.634;2023-03-23T00:30:44;98415.507812;;;8.880000;65.138672
77517;BME280;68414;53.946;27.634;2023-03-23T00:31:45;98411.343750;;;8.940000;65.060547
77517;BME280;68414;53.946;27.634;2023-03-23T00:32:44;98410.898438;;;8.920000;65.025391
77517;BME280;68414;53.946;27.634;2023-03-23T00:33:44;98414.093750;;;8.940000;64.909180
77517;BME280;68414;53.946;27.634;2023-03-23T00:34:44;98415.226562;;;8.930000;65.016602
77517;BME280;68414;53.946;27.634;2023-03-23T00:35:44;98417.781250;;;8.860000;65.178711
77517;BME280;68414;53.946;27.634;2023-03-23T00:36:49;98415.593750;;;8.910000;65.166016
77517;BME280;68414;53.946;27.634;2023-03-23T00:37:44;98410.015625;;;8.880000;65.279297
77517;BME280;68414;53.946;27.634;2023-03-23T00:38:44;98416.726562;;;8.900000;65.250977
77517;BME280;68414;53.946;27.634;2023-03-23T00:39:45;98417.171875;;;8.920000;65.296875
77517;BME280;68414;53.946;27.634;2023-03-23T00:40:44;98415.953125;;;8.900000;65.443359
77517;BME280;68414;53.946;27.634;2023-03-23T00:41:45;98411.671875;;;8.920000;65.242188
77517;BME280;68414;53.946;27.634;2023-03-23T00:42:44;98410.898438;;;8.920000;65.208984
77517;BME280;68414;53.946;27.634;2023-03-23T00:43:44;98411.078125;;;8.830000;65.422852
77517;BME280;68414;53.946;27.634;2023-03-23T00:44:44;98413.820312;;;8.830000;65.661133
77517;BME280;68414;53.946;27.634;2023-03-23T00:45:44;98408.406250;;;8.870000;65.353516
77517;BME280;68414;53.946;27.634;2023-03-23T00:46:45;98406.718750;;;8.820000;65.616211
77517;BME280;68414;53.946;27.634;2023-03-23T00:47:44;98403.273438;;;8.850000;65.491211
77517;BME280;68414;53.946;27.634;2023-03-23T00:48:44;98407.265625;;;8.880000;65.516602
77517;BME280;68414;53.946;27.634;2023-03-23T00:49:44;98404.406250;;;8.840000;65.565430
77517;BME280;68414;53.946;27.634;2023-03-23T00:50:44;98410.015625;;;8.880000;65.505859
77517;BME280;68414;53.946;27.634;2023-03-23T00:51:44;98400.601562;;;8.890000;65.485352
77517;BME280;68414;53.946;27.634;2023-03-23T00:52:44;98402.828125;;;8.830000;65.747070
77517;BME280;68414;53.946;27.634;2023-03-23T00:53:45;98402.468750;;;8.850000;65.630859
77517;BME280;68414;53.946;27.634;2023-03-23T00:54:44;98402.828125;;;8.830000;65.855469
77517;BME280;68414;53.946;27.634;2023-03-23T00:55:45;98400.601562;;;8.890000;65.593750
77517;BME280;68414;53.946;27.634;2023-03-23T00:56:44;98403.273438;;;8.850000;65.652344
77517;BME280;68414;53.946;27.634;2023-03-23T00:57:44;98398.546875;;;8.860000;65.751953
77517;BME280;68414;53.946;27.634;2023-03-23T00:58:44;98397.609375;;;8.940000;65.557617
77517;BME280;68414;53.946;27.634;2023-03-23T00:59:44;98400.421875;;;8.970000;65.434570
77517;BME280;68414;53.946;27.634;2023-03-23T01:00:44;98402.218750;;;8.900000;65.670898
77517;BME280;68414;53.946;27.634;2023-03-23T01:01:44;98405.296875;;;8.880000;65.701172
77517;BME280;68414;53.946;27.634;2023-03-23T01:02:44;98409.289062;;;8.910000;65.684570
77517;BME280;68414;53.946;27.634;2023-03-23T01:03:44;98403.875000;;;8.940000;65.775391
77517;BME280;68414;53.946;27.634;2023-03-23T01:04:44;98408.671875;;;8.970000;65.510742
77517;BME280;68414;53.946;27.634;2023-03-23T01:05:45;98403.609375;;;8.990000;65.524414
77517;BME280;68414;53.946;27.634;2023-03-23T01:06:44;98404.781250;;;8.980000;65.596680
77517;BME280;68414;53.946;27.634;2023-03-23T01:07:45;98402.476562;;;9.000000;65.384766
77517;BME280;68414;53.946;27.634;2023-03-23T01:08:44;98402.812500;;;8.990000;65.587891
77517;BME280;68414;53.946;27.634;2023-03-23T01:09:44;98399.179688;;;8.950000;65.592773
77517;BME280;68414;53.946;27.634;2023-03-23T01:10:45;98399.179688;;;8.950000;65.646484
77517;BME280;68414;53.946;27.634;2023-03-23T01:11:44;98401.484375;;;8.930000;65.730469
77517;BME280;68414;53.946;27.634;2023-03-23T01:12:44;98398.921875;;;9.000000;65.491211
77517;BME280;68414;53.946;27.634;2023-03-23T01:13:44;98397.937500;;;9.080000;65.352539
77517;BME280;68414;53.946;27.634;2023-03-23T01:14:44;98394.390625;;;9.070000;65.309570
77517;BME280;68414;53.946;27.634;2023-03-23T01:15:44;98401.312500;;;9.010000;65.602539
77517;BME280;68414;53.946;27.634;2023-03-23T01:16:44;98393.875000;;;9.020000;65.700195
77517;BME280;68414;53.946;27.634;2023-03-23T01:17:44;98398.562500;;;9.010000;65.721680
77517;BME280;68414;53.946;27.634;2023-03-23T01:18:44;98392.367188;;;9.040000;65.595703
77517;BME280;68414;53.946;27.634;2023-03-23T01:19:44;98386.945312;;;9.080000;65.396484
77517;BME280;68414;53.946;27.634;2023-03-23T01:20:44;98398.742188;;;9.080000;65.288086
77517;BME280;68414;53.946;27.634;2023-03-23T01:21:44;98401.562500;;;9.120000;65.326172
77517;BME280;68414;53.946;27.634;2023-03-23T01:22:44;98394.390625;;;9.070000;65.428711
77517;BME280;68414;53.946;27.634;2023-03-23T01:23:44;98393.945312;;;9.050000;65.553711
77517;BME280;68414;53.946;27.634;2023-03-23T01:24:44;98398.296875;;;9.060000;65.707031
77517;BME280;68414;53.946;27.634;2023-03-23T01:25:44;98399.984375;;;9.110000;65.626953
77517;BME280;68414;53.946;27.634;2023-03-23T01:26:44;98392.445312;;;9.080000;65.537109
77517;BME280;68414;53.946;27.634;2023-03-23T01:27:44;98390.062500;;;9.060000;65.630859
77517;BME280;68414;53.946;27.634;2023-03-23T01:28:44;98396.250000;;;9.030000;65.637695
77517;BME280;68414;53.946;27.634;2023-03-23T01:29:44;98390.757812;;;9.030000;65.821289
77517;BME280;68414;53.946;27.634;2023-03-23T01:30:44;98387.750000;;;9.080000;65.601562
77517;BME280;68414;53.946;27.634;2023-03-23T01:31:44;98391.296875;;;9.090000;65.527344
77517;BME280;68414;53.946;27.634;2023-03-23T01:32:44;98386.140625;;;9.070000;65.439453
77517;BME280;68414;53.946;27.634;2023-03-23T01:33:44;98386.437500;;;9.020000;65.906250
77517;BME280;68414;53.946;27.634;2023-03-23T01:34:44;98386.437500;;;9.020000;65.701172
77517;BME280;68414;53.946;27.634;2023-03-23T01:35:44;98386.500000;;;9.060000;65.651367
77517;BME280;68414;53.946;27.634;2023-03-23T01:36:44;98388.453125;;;9.050000;65.672852
77517;BME280;68414;53.946;27.634;2023-03-23T01:37:44;98393.500000;;;9.030000;65.746094
77517;BME280;68414;53.946;27.634;2023-03-23T01:38:44;98382.953125;;;9.050000;65.705078
77517;BME280;68414;53.946;27.634;2023-03-23T01:39:44;98385.703125;;;9.050000;65.662109
77517;BME280;68414;53.946;27.634;2023-03-23T01:40:44;98386.062500;;;9.040000;65.778320
77517;BME280;68414;53.946;27.634;2023-03-23T01:41:44;98382.953125;;;9.050000;65.629883
77517;BME280;68414;53.946;27.634;2023-03-23T01:42:44;98376.312500;;;9.060000;65.620117
77517;BME280;68414;53.946;27.634;2023-03-23T01:45:44;98383.687500;;;9.020000;65.701172
77517;BME280;68414;53.946;27.634;2023-03-23T01:46:44;98382.515625;;;9.030000;65.799805
77517;BME280;68414;53.946;27.634;2023-03-23T01:48:44;98376.250000;;;9.030000;65.918945
77517;BME280;68414;53.946;27.634;2023-03-23T01:49:45;98385.265625;;;9.030000;65.832031
77517;BME280;68414;53.946;27.634;2023-03-23T01:51:49;98376.250000;;;9.030000;65.842773
77517;BME280;68414;53.946;27.634;2023-03-23T01:52:44;98374.265625;;;9.030000;65.886719
77517;BME280;68414;53.946;27.634;2023-03-23T01:54:44;98369.398438;;;8.970000;66.125000
77517;BME280;68414;53.946;27.634;2023-03-23T01:55:44;98376.500000;;;8.980000;66.050781
77517;BME280;68414;53.946;27.634;2023-03-23T01:56:47;98371.007812;;;8.980000;66.159180
77517;BME280;68414;53.946;27.634;2023-03-23T01:57:44;98367.820312;;;8.960000;66.209961
77517;BME280;68414;53.946;27.634;2023-03-23T01:58:44;98368.156250;;;8.940000;66.121094
77517;BME280;68414;53.946;27.634;2023-03-23T01:59:47;98365.765625;;;8.930000;66.238281
77517;BME280;68414;53.946;27.634;2023-03-23T02:00:46;98372.765625;;;8.900000;66.363281
77517;BME280;68414;53.946;27.634;2023-03-23T02:01:46;98365.875000;;;8.960000;66.156250
77517;BME280;68414;53.946;27.634;2023-03-23T02:02:45;98363.125000;;;8.960000;66.166992
77517;BME280;68414;53.946;27.634;2023-03-23T02:03:45;98362.328125;;;8.960000;66.134766
77517;BME280;68414;53.946;27.634;2023-03-23T02:04:46;98368.156250;;;8.940000;66.196289
77517;BME280;68414;53.946;27.634;2023-03-23T02:05:46;98360.718750;;;8.950000;66.273438
77517;BME280;68414;53.946;27.634;2023-03-23T02:06:44;98359.578125;;;8.960000;66.231445
77517;BME280;68414;53.946;27.634;2023-03-23T02:07:44;98364.007812;;;9.000000;66.022461
77517;BME280;68414;53.946;27.634;2023-03-23T02:08:44;98356.828125;;;8.960000;66.123047
77517;BME280;68414;53.946;27.634;2023-03-23T02:09:44;98367.890625;;;8.840000;66.634766
77517;BME280;68414;53.946;27.634;2023-03-23T02:10:44;98365.953125;;;8.840000;66.656250
77517;BME280;68414;53.946;27.634;2023-03-23T02:11:45;98363.937500;;;8.810000;66.749023
77517;BME280;68414;53.946;27.634;2023-03-23T02:12:44;98369.500000;;;8.850000;66.667969
77517;BME280;68414;53.946;27.634;2023-03-23T02:13:44;98362.398438;;;8.840000;66.774414
77517;BME280;68414;53.946;27.634;2023-03-23T02:14:44;98363.640625;;;8.860000;66.713867
77517;BME280;68414;53.946;27.634;2023-03-23T02:17:49;98367.640625;;;8.890000;66.543945
77517;BME280;68414;53.946;27.634;2023-03-23T02:21:48;98370.828125;;;8.910000;66.365234
77517;BME280;68414;53.946;27.634;2023-03-23T02:22:48;98376.320312;;;8.910000;66.613281
77517;BME280;68414;53.946;27.634;2023-03-23T02:28:48;98362.843750;;;8.860000;66.723633
77517;BME280;68414;53.946;27.634;2023-03-23T02:29:46;98362.062500;;;8.850000;66.916992
77517;BME280;68414;53.946;27.634;2023-03-23T02:33:46;98368.156250;;;8.940000;66.336914
77517;BME280;68414;53.946;27.634;2023-03-23T02:34:45;98363.468750;;;8.950000;66.381836
77517;BME280;68414;53.946;27.634;2023-03-23T02:36:46;98369.062500;;;8.980000;66.580078
77517;BME280;68414;53.946;27.634;2023-03-23T02:38:47;98365.328125;;;8.910000;66.807617
77517;BME280;68414;53.946;27.634;2023-03-23T02:40:49;98368.875000;;;8.760000;67.711914
77517;BME280;68414;53.946;27.634;2023-03-23T02:41:48;98363.015625;;;8.770000;67.833984
77517;BME280;68414;53.946;27.634;2023-03-23T02:42:45;98364.703125;;;8.820000;67.840820
77517;BME280;68414;53.946;27.634;2023-03-23T02:43:44;98363.570312;;;8.830000;67.723633
77517;BME280;68414;53.946;27.634;2023-03-23T02:44:45;98360.015625;;;8.820000;67.916016
77517;BME280;68414;53.946;27.634;2023-03-23T02:45:44;98359.578125;;;8.800000;67.957031
77517;BME280;68414;53.946;27.634;2023-03-23T02:46:44;98358.156250;;;8.860000;67.804688
77517;BME280;68414;53.946;27.634;2023-03-23T02:47:44;98362.062500;;;8.850000;67.532227
77517;BME280;68414;53.946;27.634;2023-03-23T02:48:44;98361.703125;;;8.870000;67.772461
77517;BME280;68414;53.946;27.634;2023-03-23T02:49:45;98362.843750;;;8.860000;67.987305
77517;BME280;68414;53.946;27.634;2023-03-23T02:50:45;98357.812500;;;8.880000;67.967773
77517;BME280;68414;53.946;27.634;2023-03-23T02:51:44;98358.953125;;;8.870000;68.031250
77517;BME280;68414;53.946;27.634;2023-03-23T02:52:44;98359.578125;;;8.800000;68.367188
77517;BME280;68414;53.946;27.634;2023-03-23T02:53:44;98357.968750;;;8.790000;68.418945
77517;BME280;68414;53.946;27.634;2023-03-23T02:54:44;98359.132812;;;8.780000;68.331055
77517;BME280;68414;53.946;27.634;2023-03-23T02:55:44;98359.578125;;;8.800000;68.583008
77517;BME280;68414;53.946;27.634;2023-03-23T02:56:44;98366.671875;;;8.810000;68.605469
77517;BME280;68414;53.946;27.634;2023-03-23T02:57:45;98357.265625;;;8.820000;68.769531
77517;BME280;68414;53.946;27.634;2023-03-23T02:58:44;98363.937500;;;8.810000;68.778320
77517;BME280;68414;53.946;27.634;2023-03-23T02:59:45;98356.390625;;;8.780000;68.849609
77517;BME280;68414;53.946;27.634;2023-03-23T03:00:44;98351.437500;;;8.680000;69.351562
77517;BME280;68414;53.946;27.634;2023-03-23T03:01:47;98356.562500;;;8.700000;69.461914
77517;BME280;68414;53.946;27.634;2023-03-23T03:02:45;98362.062500;;;8.700000;69.569336
77517;BME280;68414;53.946;27.634;2023-03-23T03:03:44;98358.140625;;;8.710000;69.701172
77517;BME280;68414;53.946;27.634;2023-03-23T03:05:47;98362.687500;;;8.790000;69.660156
77517;BME280;68414;53.946;27.634;2023-03-23T03:11:46;98349.718750;;;8.790000;69.508789
77517;BME280;68414;53.946;27.634;2023-03-23T03:14:48;98345.031250;;;8.800000;69.358398
77517;BME280;68414;53.946;27.634;2023-03-23T03:17:45;98345.406250;;;8.780000;69.281250
77517;BME280;68414;53.946;27.634;2023-03-23T03:18:45;98346.984375;;;8.790000;69.401367
77517;BME280;68414;53.946;27.634;2023-03-23T03:19:45;98345.406250;;;8.780000;69.507812
77517;BME280;68414;53.946;27.634;2023-03-23T03:20:45;98346.828125;;;8.720000;69.595703
77517;BME280;68414;53.946;27.634;2023-03-23T03:21:45;98345.140625;;;8.680000;69.955078
77517;BME280;68414;53.946;27.634;2023-03-23T03:22:44;98347.437500;;;8.660000;70.069336
77517;BME280;68414;53.946;27.634;2023-03-23T03:23:44;98348.140625;;;8.630000;70.010742
77517;BME280;68414;53.946;27.634;2023-03-23T03:24:44;98346.117188;;;8.600000;69.962891
77517;BME280;68414;53.946;27.634;2023-03-23T03:25:44;98346.117188;;;8.600000;70.157227
77517;BME280;68414;53.946;27.634;2023-03-23T03:26:46;98340.343750;;;8.650000;70.088867
77517;BME280;68414;53.946;27.634;2023-03-23T03:27:44;98340.781250;;;8.670000;69.833984
77517;BME280;68414;53.946;27.634;2023-03-23T03:28:44;98338.031250;;;8.670000;69.962891
77517;BME280;68414;53.946;27.634;2023-03-23T03:29:45;98339.640625;;;8.680000;69.836914
77517;BME280;68414;53.946;27.634;2023-03-23T03:30:44;98332.906250;;;8.650000;69.605469
77517;BME280;68414;53.946;27.634;2023-03-23T03:31:44;98341.843750;;;8.620000;69.719727
77517;BME280;68414;53.946;27.634;2023-03-23T03:32:44;98340.265625;;;8.610000;70.093750
77517;BME280;68414;53.946;27.634;2023-03-23T03:33:44;98335.906250;;;8.600000;70.050781
77517;BME280;68414;53.946;27.634;2023-03-23T03:34:44;98337.406250;;;8.580000;70.337891
77517;BME280;68414;53.946;27.634;2023-03-23T03:35:44;98337.328125;;;8.540000;70.202148
77517;BME280;68414;53.946;27.634;2023-03-23T03:36:44;98339.375000;;;8.570000;70.217773
77517;BME280;68414;53.946;27.634;2023-03-23T03:37:44;98337.765625;;;8.560000;70.054688
77517;BME280;68414;53.946;27.634;2023-03-23T03:38:45;98342.820312;;;8.540000;70.180664
77517;BME280;68414;53.946;27.634;2023-03-23T03:39:44;98335.023438;;;8.560000;70.324219
77517;BME280;68414;53.946;27.634;2023-03-23T03:40:44;98334.328125;;;8.590000;70.145508
77517;BME280;68414;53.946;27.634;2023-03-23T03:41:44;98331.140625;;;8.570000;70.044922
77517;BME280;68414;53.946;27.634;2023-03-23T03:42:44;98327.593750;;;8.570000;70.313477
77517;BME280;68414;53.946;27.634;2023-03-23T03:43:44;98332.640625;;;8.550000;70.353516
77517;BME280;68414;53.946;27.634;2023-03-23T03:44:44;98333.890625;;;8.570000;70.314453
77517;BME280;68414;53.946;27.634;2023-03-23T03:45:44;98329.640625;;;8.600000;70.221680
77517;BME280;68414;53.946;27.634;2023-03-23T03:46:44;98328.921875;;;8.630000;70.194336
77517;BME280;68414;53.946;27.634;2023-03-23T03:47:44;98326.609375;;;8.650000;70.013672
77517;BME280;68414;53.946;27.634;2023-03-23T03:48:44;98329.281250;;;8.610000;70.029297
77517;BME280;68414;53.946;27.634;2023-03-23T03:49:44;98320.601562;;;8.590000;70.123047
77517;BME280;68414;53.946;27.634;2023-03-23T03:50:44;98327.671875;;;8.600000;70.341797
77517;BME280;68414;53.946;27.634;2023-03-23T03:51:44;98326.531250;;;8.610000;70.255859
77517;BME280;68414;53.946;27.634;2023-03-23T03:52:44;98322.281250;;;8.640000;70.163086
77517;BME280;68414;53.946;27.634;2023-03-23T03:53:44;98327.781250;;;8.640000;70.001953
77517;BME280;68414;53.946;27.634;2023-03-23T03:54:44;98319.875000;;;8.620000;70.032227
77517;BME280;68414;53.946;27.634;2023-03-23T03:55:44;98327.335938;;;8.620000;70.117188
77517;BME280;68414;53.946;27.634;2023-03-23T03:56:44;98323.789062;;;8.610000;69.954102
77517;BME280;68414;53.946;27.634;2023-03-23T03:57:44;98317.929688;;;8.630000;69.859375
77517;BME280;68414;53.946;27.634;2023-03-23T03:58:44;98310.937500;;;8.650000;69.756836
77517;BME280;68414;53.946;27.634;2023-03-23T03:59:44;98316.062500;;;8.670000;69.704102
77517;BME280;68414;53.946;27.634;2023-03-23T04:00:44;98307.390625;;;8.650000;69.852539
77517;BME280;68414;53.946;27.634;2023-03-23T04:01:44;98312.875000;;;8.650000;69.916992
77517;BME280;68414;53.946;27.634;2023-03-23T04:02:45;98312.804688;;;8.610000;69.845703
77517;BME280;68414;53.946;27.634;2023-03-23T04:03:44;98307.750000;;;8.630000;69.915039
77517;BME280;68414;53.946;27.634;2023-03-23T04:04:44;98305.703125;;;8.600000;70.083008
77517;BME280;68414;53.946;27.634;2023-03-23T04:05:44;98302.625000;;;8.620000;69.922852
77517;BME280;68414;53.946;27.634;2023-03-23T04:06:44;98304.203125;;;8.630000;69.827148
77517;BME280;68414;53.946;27.634;2023-03-23T04:07:44;98309.617188;;;8.590000;70.080078
77517;BME280;68414;53.946;27.634;2023-03-23T04:08:44;98298.968750;;;8.580000;70.111328
77517;BME280;68414;53.946;27.634;2023-03-23T04:09:44;98292.703125;;;8.570000;70.185547
77517;BME280;68414;53.946;27.634;2023-03-23T04:10:44;98293.398438;;;8.540000;70.094727
77517;BME280;68414;53.946;27.634;2023-03-23T04:11:44;98292.593750;;;8.540000;70.029297
77517;BME280;68414;53.946;27.634;2023-03-23T04:12:44;98298.453125;;;8.520000;70.124023
77517;BME280;68414;53.946;27.634;2023-03-23T04:13:44;98297.640625;;;8.520000;70.089844
77517;BME280;68414;53.946;27.634;2023-03-23T04:14:44;98293.398438;;;8.540000;70.083984
77517;BME280;68414;53.946;27.634;2023-03-23T04:15:44;98297.312500;;;8.530000;70.233398
77517;BME280;68414;53.946;27.634;2023-03-23T04:16:44;98295.703125;;;8.520000;70.393555
77517;BME280;68414;53.946;27.634;2023-03-23T04:17:44;98293.398438;;;8.540000;70.245117
77517;BME280;68414;53.946;27.634;2023-03-23T04:18:44;98296.945312;;;8.550000;70.018555
77517;BME280;68414;53.946;27.634;2023-03-23T04:19:44;98290.734375;;;8.580000;69.970703
77517;BME280;68414;53.946;27.634;2023-03-23T04:20:45;98287.210938;;;8.570000;69.882812
77517;BME280;68414;53.946;27.634;2023-03-23T04:21:44;98287.546875;;;8.560000;69.946289
77517;BME280;68414;53.946;27.634;2023-03-23T04:22:44;98294.562500;;;8.530000;70.082031
77517;BME280;68414;53.946;27.634;2023-03-23T04:23:44;98291.453125;;;8.550000;70.007812
77517;BME280;68414;53.946;27.634;2023-03-23T04:24:44;98294.640625;;;8.570000;69.914062
77517;BME280;68414;53.946;27.634;2023-03-23T04:25:44;98295.445312;;;8.570000;69.894531
77517;BME280;68414;53.946;27.634;2023-03-23T04:26:44;98294.640625;;;8.570000;69.978516
77517;BME280;68414;53.946;27.634;2023-03-23T04:27:44;98297.750000;;;8.550000;69.890625
77517;BME280;68414;53.946;27.634;2023-03-23T04:28:44;98289.953125;;;8.570000;69.904297
77517;BME280;68414;53.946;27.634;2023-03-23T04:29:44;98291.531250;;;8.580000;70.015625
77517;BME280;68414;53.946;27.634;2023-03-23T04:30:44;98291.453125;;;8.550000;70.007812
77517;BME280;68414;53.946;27.634;2023-03-23T04:31:44;98298.078125;;;8.540000;70.212891
77517;BME280;68414;53.946;27.634;2023-03-23T04:32:44;98290.390625;;;8.590000;70.004883
77517;BME280;68414;53.946;27.634;2023-03-23T04:33:44;98292.781250;;;8.610000;69.813477
77517;BME280;68414;53.946;27.634;2023-03-23T04:34:44;98297.203125;;;8.650000;69.724609
77517;BME280;68414;53.946;27.634;2023-03-23T04:35:44;98291.718750;;;8.650000;69.432617
77517;BME280;68414;53.946;27.634;2023-03-23T04:36:44;98292.851562;;;8.640000;69.496094
77517;BME280;68414;53.946;27.634;2023-03-23T04:37:44;98294.718750;;;8.600000;69.641602
77517;BME280;68414;53.946;27.634;2023-03-23T04:38:44;98297.468750;;;8.600000;69.834961
77517;BME280;68414;53.946;27.634;2023-03-23T04:39:44;98294.718750;;;8.600000;69.878906
77517;BME280;68414;53.946;27.634;2023-03-23T04:40:44;98292.703125;;;8.570000;69.872070
77517;BME280;68414;53.946;27.634;2023-03-23T04:41:44;98290.281250;;;8.560000;70.065430
77517;BME280;68414;53.946;27.634;2023-03-23T04:42:44;98293.945312;;;8.600000;69.887695
77517;BME280;68414;53.946;27.634;2023-03-23T04:43:44;98294.281250;;;8.580000;69.961914
77517;BME280;68414;53.946;27.634;2023-03-23T04:44:44;98288.453125;;;8.600000;69.736328
77517;BME280;68414;53.946;27.634;2023-03-23T04:45:44;98297.023438;;;8.580000;69.951172
77517;BME280;68414;53.946;27.634;2023-03-23T04:46:44;98301.015625;;;8.610000;70.029297
77517;BME280;68414;53.946;27.634;2023-03-23T04:47:44;98291.640625;;;8.620000;69.933594
77517;BME280;68414;53.946;27.634;2023-03-23T04:48:46;98291.968750;;;8.600000;70.125977
77517;BME280;68414;53.946;27.634;2023-03-23T04:49:44;98294.093750;;;8.670000;70.157227
77517;BME280;68414;53.946;27.634;2023-03-23T04:50:44;98289.046875;;;8.690000;70.085938
77517;BME280;68414;53.946;27.634;2023-03-23T04:51:44;98286.296875;;;8.690000;70.139648
77517;BME280;68414;53.946;27.634;2023-03-23T04:52:44;98291.015625;;;8.680000;70.074219
77517;BME280;68414;53.946;27.634;2023-03-23T04:53:44;98285.593750;;;8.720000;70.133789
77517;BME280;68414;53.946;27.634;2023-03-23T04:54:44;98293.468750;;;8.730000;70.210938
77517;BME280;68414;53.946;27.634;2023-03-23T04:55:44;98293.468750;;;8.730000;70.243164
77517;BME280;68414;53.946;27.634;2023-03-23T04:56:44;98296.507812;;;8.680000;70.483398
77517;BME280;68414;53.946;27.634;2023-03-23T04:57:44;98299.695312;;;8.700000;70.206055
77517;BME280;68414;53.946;27.634;2023-03-23T04:58:44;98301.640625;;;8.700000;70.605469
77517;BME280;68414;53.946;27.634;2023-03-23T04:59:44;98307.203125;;;8.730000;70.329102
77517;BME280;68414;53.946;27.634;2023-03-23T05:00:44;98304.453125;;;8.730000;70.416016
77517;BME280;68414;53.946;27.634;2023-03-23T05:01:44;98307.054688;;;8.660000;70.318359
77517;BME280;68414;53.946;27.634;2023-03-23T05:02:44;98310.687500;;;8.700000;70.325195
77517;BME280;68414;53.946;27.634;2023-03-23T05:03:44;98313.140625;;;8.750000;70.504883
77517;BME280;68414;53.946;27.634;2023-03-23T05:04:44;98312.804688;;;8.770000;70.390625